Time;durP1;ratioP1;P1;durP2;ratioP2;P2;SDS_P1;SDS_P2;PMS_P1;PMS_P2;Temp;Humidity;BMP_temperature;BMP_pressure;BME280_temperature;BME280_humidity;BME280_pressure;Samples;Min_cycle;Max_cycle;Signal;HPM_P1;HPM_P2
2023/03/08 00:00:39;;;;;;;;;;;;;;;16.48;48.04;100034.66;4996346;28;1111;-46
2023/03/08 00:03:05;;;;;;;;;;;;;;;15.92;49.41;100039.56;4996437;28;1139;-46
2023/03/08 00:05:31;;;;;;;;;;;;;;;15.68;50.23;100036.72;4996286;28;1072;-44
2023/03/08 00:07:56;;;;;;;;;;;;;;;15.46;50.58;100046.22;4996018;28;1914;-48
2023/03/08 00:10:22;;;;;;;;;;;;;;;15.81;50.16;100035.28;4995943;28;1125;-47
2023/03/08 00:12:47;;;;;;;;;;;;;;;17.07;46.78;100044.44;4996368;28;1046;-44
2023/03/08 00:15:13;;;;;;;;;;;;;;;16.07;49.34;100044.97;4996155;28;1162;-45
2023/03/08 00:17:39;;;;;;;;;;;;;;;15.70;50.14;100045.50;4996098;28;1128;-46
2023/03/08 00:20:05;;;;;;;;;;;;;;;15.52;50.52;100047.00;4995862;28;928;-46
2023/03/08 00:22:37;;;;;;;;;;;;;;;15.30;50.96;100039.97;4998366;28;1045;-43
2023/03/08 00:25:03;;;;;;;;;;;;;;;16.92;47.37;100036.41;4999652;28;1179;-47
2023/03/08 00:27:28;;;;;;;;;;;;;;;16.57;47.98;100030.19;4999660;28;2010;-46
2023/03/08 00:29:55;;;;;;;;;;;;;;;15.91;49.49;100027.81;4998809;28;1156;-47
2023/03/08 00:32:25;;;;;;;;;;;;;;;15.64;50.46;100035.66;4982389;28;1149;-47
2023/03/08 00:34:50;;;;;;;;;;;;;;;15.44;50.88;100039.38;4999293;28;1131;-44
2023/03/08 00:37:16;;;;;;;;;;;;;;;15.35;50.91;100034.47;4999779;28;1099;-48
2023/03/08 00:39:49;;;;;;;;;;;;;;;17.06;47.07;100033.75;4997338;28;1135;-47
2023/03/08 00:42:15;;;;;;;;;;;;;;;16.38;48.35;100022.72;4999339;28;1125;-46
2023/03/08 00:44:40;;;;;;;;;;;;;;;15.85;49.79;100026.22;4999103;28;1296;-46
2023/03/08 00:47:06;;;;;;;;;;;;;;;15.58;50.33;100029.41;5013937;28;1898;-45
2023/03/08 00:49:31;;;;;;;;;;;;;;;15.37;50.69;100015.81;4999295;28;1123;-50
2023/03/08 00:51:57;;;;;;;;;;;;;;;15.33;50.92;100019.44;4999319;28;1187;-47
2023/03/08 00:54:22;;;;;;;;;;;;;;;16.99;46.94;100017.63;4998945;28;1236;-46
2023/03/08 00:56:48;;;;;;;;;;;;;;;16.67;47.55;100024.56;4999190;28;1071;-48
2023/03/08 00:59:14;;;;;;;;;;;;;;;15.95;49.44;100025.31;4999053;28;1072;-44
2023/03/08 01:01:39;;;;;;;;;;;;;;;15.70;50.05;100021.63;4998817;28;1187;-45
2023/03/08 01:04:06;;;;;;;;;;;;;;;15.40;50.75;100019.94;4998631;28;1080;-44
2023/03/08 01:06:34;;;;;;;;;;;;;;;15.25;51.32;100028.25;4998387;28;1902;-45
2023/03/08 01:09:00;;;;;;;;;;;;;;;16.72;47.60;100019.03;4998987;28;1104;-49
2023/03/08 01:11:26;;;;;;;;;;;;;;;16.71;47.45;100014.63;4998873;28;1215;-46
2023/03/08 01:13:51;;;;;;;;;;;;;;;15.94;49.47;100026.41;4998613;28;1116;-48
2023/03/08 01:16:21;;;;;;;;;;;;;;;15.65;50.48;100026.34;5020636;28;1207;-48
2023/03/08 01:18:47;;;;;;;;;;;;;;;15.45;50.58;100030.84;4998614;28;1127;-48
2023/03/08 01:21:12;;;;;;;;;;;;;;;15.37;50.85;100020.50;4998533;28;1009;-45
2023/03/08 01:23:38;;;;;;;;;;;;;;;17.00;46.94;100015.69;4998394;28;1077;-47
2023/03/08 01:26:10;;;;;;;;;;;;;;;16.68;47.61;100020.72;4998715;28;1914;-48
2023/03/08 01:28:35;;;;;;;;;;;;;;;15.95;49.33;100019.84;4998577;28;1228;-48
2023/03/08 01:31:02;;;;;;;;;;;;;;;15.66;50.15;100009.59;4997899;28;1136;-50
2023/03/08 01:33:27;;;;;;;;;;;;;;;15.50;50.69;100014.41;4980460;28;1184;-47
2023/03/08 01:35:53;;;;;;;;;;;;;;;15.29;50.89;100015.63;4998560;28;984;-46
2023/03/08 01:38:18;;;;;;;;;;;;;;;16.75;47.93;100012.13;4998217;28;1144;-46
2023/03/08 01:40:44;;;;;;;;;;;;;;;16.85;47.11;100002.97;4997985;28;1127;-45
2023/03/08 01:43:16;;;;;;;;;;;;;;;16.06;49.02;100017.78;4998181;28;1157;-47
2023/03/08 01:46:00;;;;;;;;;;;;;;;15.75;50.01;100020.78;4996736;28;1167;-51
2023/03/08 01:48:28;;;;;;;;;;;;;;;15.49;50.43;100015.50;4998423;28;1148;-45
2023/03/08 01:51:05;;;;;;;;;;;;;;;15.50;50.83;100016.31;5012048;28;1115;-48
2023/03/08 01:53:31;;;;;;;;;;;;;;;17.11;46.84;100000.72;4996909;28;1195;-50
2023/03/08 01:55:57;;;;;;;;;;;;;;;16.43;48.40;100002.63;4997730;28;1202;-45
2023/03/08 01:58:23;;;;;;;;;;;;;;;15.86;49.58;100014.13;4996379;28;1131;-51
2023/03/08 02:00:48;;;;;;;;;;;;;;;15.58;50.49;100010.22;4996286;28;1245;-47
2023/03/08 02:03:14;;;;;;;;;;;;;;;15.35;50.67;100001.63;4997735;28;1057;-48
2023/03/08 02:05:40;;;;;;;;;;;;;;;15.84;50.02;99996.34;4996676;28;1300;-50
2023/03/08 02:08:13;;;;;;;;;;;;;;;17.14;46.51;100002.88;5012557;28;1170;-48
2023/03/08 02:10:40;;;;;;;;;;;;;;;16.02;49.38;100020.31;5012749;28;1346;-49
2023/03/08 02:13:06;;;;;;;;;;;;;;;15.65;50.08;100021.66;5013323;28;1040;-50
2023/03/08 02:15:33;;;;;;;;;;;;;;;15.44;50.59;100031.16;4980190;28;1152;-48
2023/03/08 02:17:58;;;;;;;;;;;;;;;15.26;51.22;100036.16;5012820;28;1425;-50
2023/03/08 02:20:24;;;;;;;;;;;;;;;16.86;47.27;100035.63;4997185;28;1071;-45
2023/03/08 02:22:52;;;;;;;;;;;;;;;16.55;47.84;100029.66;4980163;28;1194;-50
2023/03/08 02:25:17;;;;;;;;;;;;;;;15.88;49.56;100027.56;4997573;28;1125;-51
2023/03/08 02:27:43;;;;;;;;;;;;;;;15.54;50.21;100031.06;4997647;28;1934;-45
2023/03/08 02:30:09;;;;;;;;;;;;;;;15.53;50.43;100035.75;4997476;28;1069;-48
2023/03/08 02:32:34;;;;;;;;;;;;;;;17.14;46.60;100029.50;4996525;28;853;-46
2023/03/08 02:35:01;;;;;;;;;;;;;;;16.45;48.02;100024.28;4997214;28;1006;-48
2023/03/08 02:37:26;;;;;;;;;;;;;;;15.83;49.60;100033.09;5012437;28;1180;-46
2023/03/08 02:39:52;;;;;;;;;;;;;;;15.52;50.17;100038.78;4997773;28;1132;-48
2023/03/08 02:42:17;;;;;;;;;;;;;;;15.34;50.86;100035.56;5012557;28;1084;-49
2023/03/08 02:44:43;;;;;;;;;;;;;;;16.37;48.46;100020.25;4996779;28;1225;-49
2023/03/08 02:47:09;;;;;;;;;;;;;;;16.97;46.81;100028.09;4996724;28;1906;-48
2023/03/08 02:49:34;;;;;;;;;;;;;;;16.03;49.08;100030.19;5012265;28;1332;-50
2023/03/08 02:52:00;;;;;;;;;;;;;;;15.69;49.84;100020.00;5012554;28;1089;-51
2023/03/08 02:54:25;;;;;;;;;;;;;;;15.49;50.61;100028.38;5011807;28;1317;-47
2023/03/08 02:56:51;;;;;;;;;;;;;;;15.99;49.57;100020.91;4996679;28;1158;-46
2023/03/08 02:59:17;;;;;;;;;;;;;;;16.96;46.88;100025.63;5011724;28;1227;-47
2023/03/08 03:01:43;;;;;;;;;;;;;;;16.00;49.11;100025.25;5011939;28;1123;-47
2023/03/08 03:04:09;;;;;;;;;;;;;;;15.63;50.30;100028.56;4996420;28;1164;-48
2023/03/08 03:06:34;;;;;;;;;;;;;;;15.44;50.35;100025.66;5011871;28;1906;-47
2023/03/08 03:09:00;;;;;;;;;;;;;;;15.26;50.97;100019.75;4996692;28;1120;-45
2023/03/08 03:11:25;;;;;;;;;;;;;;;16.56;47.96;100020.31;5018877;28;1140;-46
2023/03/08 03:13:55;;;;;;;;;;;;;;;16.88;46.72;100024.34;4996919;28;1444;-47
2023/03/08 03:16:21;;;;;;;;;;;;;;;16.02;49.09;100025.78;4979501;28;1153;-49
2023/03/08 03:18:46;;;;;;;;;;;;;;;15.64;50.11;100025.53;5011654;28;1087;-49
2023/03/08 03:21:12;;;;;;;;;;;;;;;15.43;50.44;100033.09;4996650;28;949;-49
2023/03/08 03:23:38;;;;;;;;;;;;;;;15.71;49.99;100036.16;4996700;28;1097;-47
2023/03/08 03:26:04;;;;;;;;;;;;;;;17.22;46.29;100034.34;4979136;28;1902;-45
2023/03/08 03:28:31;;;;;;;;;;;;;;;16.21;48.46;100042.34;5011762;28;1250;-44
2023/03/08 03:30:59;;;;;;;;;;;;;;;15.75;49.68;100042.69;5011584;28;1663;-46
2023/03/08 03:33:24;;;;;;;;;;;;;;;15.49;50.25;100045.63;4996171;28;1021;-47
2023/03/08 03:35:51;;;;;;;;;;;;;;;15.29;50.85;100051.22;4996104;28;1115;-48
2023/03/08 03:38:17;;;;;;;;;;;;;;;16.48;48.08;100059.38;5011293;28;1060;-49
2023/03/08 03:40:44;;;;;;;;;;;;;;;16.99;46.60;100053.31;5011801;28;1128;-47
2023/03/08 03:43:09;;;;;;;;;;;;;;;15.98;49.17;100048.59;4996579;28;1139;-47
2023/03/08 03:45:35;;;;;;;;;;;;;;;15.63;49.86;100059.50;5011595;28;969;-44
2023/03/08 03:48:01;;;;;;;;;;;;;;;15.49;50.28;100058.53;4996276;28;1907;-47
2023/03/08 03:50:27;;;;;;;;;;;;;;;16.39;48.19;100057.25;5011670;28;1234;-45
2023/03/08 03:53:00;;;;;;;;;;;;;;;17.07;46.53;100052.69;5011625;28;1244;-45
2023/03/08 03:55:26;;;;;;;;;;;;;;;16.12;48.95;100062.44;5011246;28;1130;-53
2023/03/08 03:57:52;;;;;;;;;;;;;;;15.73;49.92;100061.38;5013045;28;1300;-53
2023/03/08 04:00:20;;;;;;;;;;;;;;;15.46;50.54;100053.59;5014944;28;1040;-53
2023/03/08 04:02:55;;;;;;;;;;;;;;;15.49;50.60;100051.13;5015594;28;1155;-58
2023/03/08 04:05:21;;;;;;;;;;;;;;;17.09;46.48;100047.69;4999765;28;1080;-53
2023/03/08 04:07:50;;;;;;;;;;;;;;;16.41;47.99;100048.72;5014958;28;1905;-49
2023/03/08 04:10:17;;;;;;;;;;;;;;;15.80;49.56;100047.38;5000106;28;1033;-54
2023/03/08 04:12:43;;;;;;;;;;;;;;;15.54;50.32;100048.34;5015060;28;1314;-48
2023/03/08 04:15:09;;;;;;;;;;;;;;;15.35;50.73;100056.41;4998227;28;1416;-53
2023/03/08 04:17:35;;;;;;;;;;;;;;;15.24;50.93;100057.56;5014828;28;1171;-48
2023/03/08 04:20:00;;;;;;;;;;;;;;;16.83;47.03;100043.59;5014763;28;1155;-51
2023/03/08 04:22:30;;;;;;;;;;;;;;;16.58;47.51;100040.88;5014611;28;1117;-50
2023/03/08 04:25:05;;;;;;;;;;;;;;;15.88;49.44;100047.56;5014760;28;1389;-53
2023/03/08 04:27:38;;;;;;;;;;;;;;;15.63;50.04;100051.28;4999728;28;1906;-51
2023/03/08 04:30:04;;;;;;;;;;;;;;;16.41;48.14;100055.06;5014866;28;1378;-54
2023/03/08 04:32:31;;;;;;;;;;;;;;;16.70;47.39;100056.94;5014505;28;1198;-51
2023/03/08 04:34:57;;;;;;;;;;;;;;;15.97;49.15;100052.44;4981828;28;1408;-53
2023/03/08 04:37:25;;;;;;;;;;;;;;;15.66;50.00;100049.91;5014866;28;1367;-52
2023/03/08 04:39:55;;;;;;;;;;;;;;;15.41;50.52;100046.22;5014218;28;1743;-47
2023/03/08 04:42:22;;;;;;;;;;;;;;;16.48;47.91;100041.00;5014678;28;1103;-50
2023/03/08 04:44:48;;;;;;;;;;;;;;;17.03;46.50;100039.84;5010869;28;1242;-46
2023/03/08 04:47:17;;;;;;;;;;;;;;;16.04;48.81;100034.53;5010984;28;1973;-48
2023/03/08 04:49:44;;;;;;;;;;;;;;;15.81;49.49;100041.59;5010826;28;1405;-47
2023/03/08 04:52:10;;;;;;;;;;;;;;;15.50;50.37;100046.44;5011258;28;1098;-46
2023/03/08 04:54:37;;;;;;;;;;;;;;;15.30;50.84;100037.25;5010987;28;1246;-49
2023/03/08 04:57:12;;;;;;;;;;;;;;;16.46;48.05;100045.13;5010860;28;1136;-48
2023/03/08 04:59:38;;;;;;;;;;;;;;;17.20;46.05;100042.09;4978192;28;1274;-48
2023/03/08 05:02:05;;;;;;;;;;;;;;;16.14;48.73;100047.34;4979880;28;1095;-47
2023/03/08 05:04:33;;;;;;;;;;;;;;;15.78;49.77;100052.28;5010816;28;1400;-49
2023/03/08 05:06:59;;;;;;;;;;;;;;;15.53;50.21;100056.84;5010539;28;1906;-48
2023/03/08 05:09:27;;;;;;;;;;;;;;;15.26;50.88;100062.75;4977916;28;1531;-44
2023/03/08 05:11:53;;;;;;;;;;;;;;;16.82;47.24;100058.47;4978936;28;1069;-50
2023/03/08 05:14:20;;;;;;;;;;;;;;;16.45;47.98;100066.25;5010218;28;2076;-54
2023/03/08 05:16:47;;;;;;;;;;;;;;;15.81;49.34;100057.22;4994494;28;1303;-51
2023/03/08 05:19:13;;;;;;;;;;;;;;;15.52;50.15;100071.66;5010840;28;1396;-48
2023/03/08 05:21:45;;;;;;;;;;;;;;;15.31;50.61;100076.44;5010327;28;1166;-48
2023/03/08 05:24:12;;;;;;;;;;;;;;;16.75;47.23;100073.34;5010451;28;1393;-52
2023/03/08 05:26:38;;;;;;;;;;;;;;;16.56;47.47;100086.19;4978971;28;1903;-53
2023/03/08 05:29:05;;;;;;;;;;;;;;;15.84;49.38;100086.81;5010144;28;1264;-52
2023/03/08 05:31:31;;;;;;;;;;;;;;;15.55;50.29;100082.03;5010216;28;1111;-57
2023/03/08 05:33:59;;;;;;;;;;;;;;;15.35;50.66;100082.97;5009793;28;1189;-53
2023/03/08 05:36:33;;;;;;;;;;;;;;;16.38;48.38;100091.31;4978833;28;1060;-54
2023/03/08 05:39:00;;;;;;;;;;;;;;;17.24;45.87;100082.41;5010044;28;1107;-56
2023/03/08 05:41:35;;;;;;;;;;;;;;;16.20;48.64;100089.25;5009939;28;1092;-54
2023/03/08 05:44:01;;;;;;;;;;;;;;;15.79;49.50;100095.03;5010071;28;1137;-53
2023/03/08 05:46:29;;;;;;;;;;;;;;;15.56;50.21;100095.44;5009872;28;1906;-53
2023/03/08 05:48:55;;;;;;;;;;;;;;;15.60;50.28;100095.72;5009339;28;1449;-52
2023/03/08 05:51:21;;;;;;;;;;;;;;;17.19;46.29;100089.91;5009836;28;1210;-54
2023/03/08 05:53:47;;;;;;;;;;;;;;;16.27;48.15;100092.50;5009862;28;1318;-54
2023/03/08 05:56:16;;;;;;;;;;;;;;;15.73;49.45;100099.75;5010042;28;1232;-53
2023/03/08 05:58:47;;;;;;;;;;;;;;;15.52;49.98;100093.56;5009805;28;1419;-51
2023/03/08 06:01:18;;;;;;;;;;;;;;;15.44;50.60;100102.38;5009442;28;1166;-51
2023/03/08 06:03:44;;;;;;;;;;;;;;;17.10;46.20;100090.53;5009659;28;1237;-52
2023/03/08 06:06:10;;;;;;;;;;;;;;;16.22;48.23;100089.81;5009627;28;1973;-53
2023/03/08 06:08:36;;;;;;;;;;;;;;;15.73;49.68;100094.25;5009581;28;1157;-53
2023/03/08 06:11:02;;;;;;;;;;;;;;;15.51;50.26;100098.22;5002462;28;1220;-55
2023/03/08 06:13:28;;;;;;;;;;;;;;;16.10;48.92;100094.84;4977869;28;1088;-56
2023/03/08 06:15:55;;;;;;;;;;;;;;;16.10;48.25;100095.66;5009432;28;1287;-56
2023/03/08 06:18:21;;;;;;;;;;;;;;;15.61;49.75;100102.00;5009226;28;1206;-54
2023/03/08 06:20:59;;;;;;;;;;;;;;;17.27;45.72;100098.28;5008627;28;1171;-54
2023/03/08 06:23:26;;;;;;;;;;;;;;;15.89;48.17;100104.06;4965211;28;1171;-52
2023/03/08 06:25:51;;;;;;;;;;;;;;;17.71;44.74;100101.84;5009282;28;1110;-49
2023/03/08 06:28:17;;;;;;;;;;;;;;;16.90;46.58;100104.50;4978087;28;1981;-50
2023/03/08 06:30:43;;;;;;;;;;;;;;;16.12;47.99;100112.66;5009020;28;1094;-48
2023/03/08 06:33:08;;;;;;;;;;;;;;;16.17;48.08;100126.34;4977454;28;898;-50
2023/03/08 06:35:34;;;;;;;;;;;;;;;16.64;47.44;100120.44;4977914;28;1231;-55
2023/03/08 06:38:01;;;;;;;;;;;;;;;16.98;46.71;100123.09;5009245;28;1174;-47
2023/03/08 06:40:27;;;;;;;;;;;;;;;18.43;43.31;100127.41;5010125;28;1230;-47
2023/03/08 06:42:52;;;;;;;;;;;;;;;16.90;46.33;100131.97;4988423;28;1172;-49
2023/03/08 06:45:18;;;;;;;;;;;;;;;16.28;47.35;100132.53;4993078;28;1088;-53
2023/03/08 06:47:44;;;;;;;;;;;;;;;17.47;45.85;100131.31;4997311;28;1971;-53
2023/03/08 06:50:11;;;;;;;;;;;;;;;16.72;47.01;100134.34;5012158;28;1268;-48
2023/03/08 06:52:38;;;;;;;;;;;;;;;16.24;47.34;100128.72;5012060;28;1451;-47
2023/03/08 06:55:06;;;;;;;;;;;;;;;16.01;46.76;100133.84;4996953;28;1291;-51
2023/03/08 06:57:32;;;;;;;;;;;;;;;17.69;45.57;100126.03;4996752;28;1104;-49
2023/03/08 06:59:57;;;;;;;;;;;;;;;16.52;47.38;100132.63;4996616;28;1251;-50
2023/03/08 07:02:23;;;;;;;;;;;;;;;16.20;47.29;100135.88;4997163;28;1068;-51
2023/03/08 07:04:48;;;;;;;;;;;;;;;17.42;46.05;100141.25;4997076;28;1169;-49
2023/03/08 07:07:14;;;;;;;;;;;;;;;16.46;47.36;100139.25;4996551;28;1997;-50
2023/03/08 07:09:39;;;;;;;;;;;;;;;18.17;44.42;100138.03;4996511;28;1060;-49
2023/03/08 07:12:05;;;;;;;;;;;;;;;17.36;45.77;100139.69;4995489;28;1445;-53
2023/03/08 07:14:31;;;;;;;;;;;;;;;16.63;46.93;100144.28;4996812;28;1164;-51
2023/03/08 07:16:56;;;;;;;;;;;;;;;16.39;46.94;100144.25;4996957;28;1188;-50
2023/03/08 07:19:22;;;;;;;;;;;;;;;16.57;46.92;100148.22;4996748;28;1017;-49
2023/03/08 07:21:47;;;;;;;;;;;;;;;17.23;46.37;100146.69;4996266;28;1408;-52
2023/03/08 07:24:13;;;;;;;;;;;;;;;16.55;47.34;100147.66;4996869;28;1100;-53
2023/03/08 07:26:38;;;;;;;;;;;;;;;17.61;45.96;100151.44;4996531;28;1910;-53
2023/03/08 07:29:04;;;;;;;;;;;;;;;16.81;47.16;100155.66;4996720;28;1291;-48
2023/03/08 07:31:31;;;;;;;;;;;;;;;16.50;47.23;100158.72;4997573;28;1120;-53
2023/03/08 07:33:56;;;;;;;;;;;;;;;17.31;46.32;100160.94;5000149;28;962;-54
2023/03/08 07:36:22;;;;;;;;;;;;;;;16.50;47.59;100167.75;5000268;28;1131;-49
2023/03/08 07:38:48;;;;;;;;;;;;;;;16.27;47.25;100157.50;5000725;28;1097;-54
2023/03/08 07:41:13;;;;;;;;;;;;;;;16.36;47.13;100169.53;5000209;28;1041;-54
2023/03/08 07:43:39;;;;;;;;;;;;;;;16.72;47.32;100170.03;5000166;28;1156;-51
2023/03/08 07:46:13;;;;;;;;;;;;;;;16.24;47.38;100159.75;5000158;28;1911;-52
2023/03/08 07:48:38;;;;;;;;;;;;;;;17.77;45.40;100166.63;5000226;28;1099;-54
2023/03/08 07:51:06;;;;;;;;;;;;;;;16.64;47.39;100156.91;5000121;28;1161;-50
2023/03/08 07:53:32;;;;;;;;;;;;;;;18.08;44.75;100170.91;4999861;28;1084;-55
2023/03/08 07:55:58;;;;;;;;;;;;;;;17.71;45.63;100162.31;5000656;28;1317;-51
2023/03/08 07:58:23;;;;;;;;;;;;;;;16.91;46.90;100161.06;4999704;28;1057;-54
2023/03/08 08:00:49;;;;;;;;;;;;;;;16.66;46.80;100162.13;4999740;28;1220;-51
2023/03/08 08:03:14;;;;;;;;;;;;;;;16.43;46.56;100162.59;4999476;28;1147;-54
2023/03/08 08:05:40;;;;;;;;;;;;;;;16.26;46.25;100167.69;4999873;28;1123;-48
2023/03/08 08:08:06;;;;;;;;;;;;;;;17.52;46.10;100164.25;4999783;28;1898;-52
2023/03/08 08:10:31;;;;;;;;;;;;;;;16.51;47.45;100168.56;4999169;28;1156;-54
2023/03/08 08:12:57;;;;;;;;;;;;;;;16.41;47.98;100164.81;5000110;28;1474;-56
2023/03/08 08:15:24;;;;;;;;;;;;;;;17.08;46.74;100161.44;4999683;28;1028;-53
2023/03/08 08:17:50;;;;;;;;;;;;;;;16.39;47.67;100160.72;4999789;28;1251;-47
2023/03/08 08:20:16;;;;;;;;;;;;;;;16.70;47.42;100161.25;4999652;28;1057;-53
2023/03/08 08:22:42;;;;;;;;;;;;;;;16.73;47.20;100152.44;4999666;28;1133;-53
2023/03/08 08:25:07;;;;;;;;;;;;;;;16.30;47.43;100146.81;4999863;28;1327;-49
2023/03/08 08:27:33;;;;;;;;;;;;;;;16.83;47.17;100150.69;5010564;28;1898;-52
2023/03/08 08:29:59;;;;;;;;;;;;;;;16.59;47.54;100144.06;5001323;28;1127;-57
2023/03/08 08:32:25;;;;;;;;;;;;;;;16.25;47.35;100144.91;5009473;28;1051;-57
2023/03/08 08:34:50;;;;;;;;;;;;;;;17.07;47.08;100142.53;4998989;28;897;-56
2023/03/08 08:37:16;;;;;;;;;;;;;;;16.48;47.33;100148.03;4999192;28;1093;-57
2023/03/08 08:39:41;;;;;;;;;;;;;;;18.03;45.18;100146.22;4998942;28;1120;-57
2023/03/08 08:42:07;;;;;;;;;;;;;;;17.97;45.35;100142.72;4999379;28;1097;-55
2023/03/08 08:44:33;;;;;;;;;;;;;;;16.87;47.09;100143.50;4998890;28;1169;-56
2023/03/08 08:46:58;;;;;;;;;;;;;;;16.61;47.12;100141.03;4998318;28;1965;-56
2023/03/08 08:49:24;;;;;;;;;;;;;;;16.90;47.12;100143.78;4999363;28;1101;-54
2023/03/08 08:51:49;;;;;;;;;;;;;;;16.97;47.16;100137.97;4999486;28;1077;-57
2023/03/08 08:54:15;;;;;;;;;;;;;;;16.55;47.11;100134.78;4998064;28;1131;-52
2023/03/08 08:56:42;;;;;;;;;;;;;;;16.28;46.75;100121.56;5004475;28;1060;-51
2023/03/08 08:59:08;;;;;;;;;;;;;;;16.16;46.52;100118.38;5002786;28;1032;-49
2023/03/08 09:01:35;;;;;;;;;;;;;;;17.06;46.65;100125.19;5013965;28;1064;-52
2023/03/08 09:04:01;;;;;;;;;;;;;;;16.41;47.69;100125.56;4999085;28;1048;-48
2023/03/08 09:06:27;;;;;;;;;;;;;;;17.63;46.15;100119.00;4998264;28;1902;-51
2023/03/08 09:08:56;;;;;;;;;;;;;;;17.17;46.70;100114.09;4998727;28;1017;-47
2023/03/08 09:11:22;;;;;;;;;;;;;;;16.60;47.34;100120.97;4998461;28;912;-53
2023/03/08 09:13:47;;;;;;;;;;;;;;;16.60;47.45;100118.25;4998526;28;1258;-48
2023/03/08 09:16:17;;;;;;;;;;;;;;;17.06;46.92;100097.72;4998295;28;1192;-53
2023/03/08 09:18:42;;;;;;;;;;;;;;;16.57;47.27;100112.53;4998775;28;1143;-52
2023/03/08 09:21:08;;;;;;;;;;;;;;;16.40;47.40;100112.97;4997773;28;1414;-47
2023/03/08 09:23:33;;;;;;;;;;;;;;;17.20;46.87;100114.31;4998255;28;890;-52
2023/03/08 09:25:59;;;;;;;;;;;;;;;16.52;47.46;100112.56;4997291;28;1366;-50
2023/03/08 09:28:25;;;;;;;;;;;;;;;17.92;45.39;100112.53;5011044;28;1966;-52
2023/03/08 09:30:50;;;;;;;;;;;;;;;17.00;47.33;100109.91;4997259;28;884;-52
2023/03/08 09:33:16;;;;;;;;;;;;;;;16.64;47.17;100123.19;4997734;28;1403;-52
2023/03/08 09:35:41;;;;;;;;;;;;;;;16.89;47.26;100113.88;4997973;28;892;-53
2023/03/08 09:38:07;;;;;;;;;;;;;;;16.79;47.49;100117.53;4997943;28;1041;-50
2023/03/08 09:40:35;;;;;;;;;;;;;;;16.37;47.35;100119.84;4998011;28;1127;-49
2023/03/08 09:43:02;;;;;;;;;;;;;;;16.25;46.83;100117.47;4997945;28;1487;-58
2023/03/08 09:45:27;;;;;;;;;;;;;;;16.17;46.63;100115.38;5012712;28;1124;-59
2023/03/08 09:48:04;;;;;;;;;;;;;;;17.25;46.46;100110.69;4997341;28;1987;-58
2023/03/08 09:50:48;;;;;;;;;;;;;;;16.71;47.13;100109.91;5012846;28;1016;-58
2023/03/08 09:53:21;;;;;;;;;;;;;;;16.28;47.14;100099.63;4997887;28;1119;-57
2023/03/08 09:56:07;;;;;;;;;;;;;;;16.11;47.02;100100.03;4997512;28;1140;-57
2023/03/08 09:58:39;;;;;;;;;;;;;;;15.94;46.43;100108.69;4993512;28;1170;-58
2023/03/08 10:01:22;;;;;;;;;;;;;;;17.41;45.97;100101.13;4997801;28;1228;-57
2023/03/08 10:03:48;;;;;;;;;;;;;;;16.40;47.71;100102.81;4998083;28;1156;-58
2023/03/08 10:06:16;;;;;;;;;;;;;;;17.14;46.89;100092.69;4997743;28;1931;-58
2023/03/08 10:08:48;;;;;;;;;;;;;;;16.97;47.03;100080.28;4997438;28;1175;-59
2023/03/08 10:11:26;;;;;;;;;;;;;;;16.47;47.33;100090.69;4997655;28;1583;-59
2023/03/08 10:13:53;;;;;;;;;;;;;;;16.91;47.41;100081.44;4997620;28;1095;-64
2023/03/08 10:16:20;;;;;;;;;;;;;;;16.69;47.37;100085.50;5012539;28;1223;-59
2023/03/08 10:19:11;;;;;;;;;;;;;;;16.29;47.40;100079.31;5012646;28;1136;-60
2023/03/08 10:21:37;;;;;;;;;;;;;;;16.41;47.55;100087.97;4996080;28;1241;-60
2023/03/08 10:24:06;;;;;;;;;;;;;;;16.85;47.38;100075.16;4996967;28;928;-60
2023/03/08 10:26:32;;;;;;;;;;;;;;;16.32;47.62;100072.44;4997627;28;1958;-59
2023/03/08 10:28:57;;;;;;;;;;;;;;;17.33;46.60;100073.50;4997224;28;1017;-60
2023/03/08 10:31:24;;;;;;;;;;;;;;;16.60;47.65;100070.78;4997587;28;1141;-56
2023/03/08 10:33:52;;;;;;;;;;;;;;;16.33;47.16;100066.66;4997452;28;1045;-56
2023/03/08 10:36:17;;;;;;;;;;;;;;;16.67;47.51;100068.50;4997172;28;997;-52
2023/03/08 10:38:43;;;;;;;;;;;;;;;16.87;47.22;100059.22;4997224;28;1128;-58
2023/03/08 10:41:12;;;;;;;;;;;;;;;17.79;45.86;100062.66;4997357;28;1188;-53
2023/03/08 10:43:47;;;;;;;;;;;;;;;18.87;43.27;100064.63;5012378;28;1056;-56
2023/03/08 10:46:14;;;;;;;;;;;;;;;17.26;46.80;100058.22;4996322;28;1910;-56
2023/03/08 10:48:40;;;;;;;;;;;;;;;16.84;47.08;100058.97;4996430;28;1085;-54
2023/03/08 10:51:14;;;;;;;;;;;;;;;18.30;44.68;100060.19;4996725;28;1044;-57
2023/03/08 10:53:40;;;;;;;;;;;;;;;17.09;47.14;100057.88;4997169;28;1088;-55
2023/03/08 10:56:19;;;;;;;;;;;;;;;16.79;46.86;100053.53;5011925;28;1360;-56
2023/03/08 10:58:44;;;;;;;;;;;;;;;16.58;46.63;100051.03;5012196;28;1136;-55
2023/03/08 11:01:23;;;;;;;;;;;;;;;17.26;46.60;100041.72;5011663;28;1324;-56
2023/03/08 11:04:04;;;;;;;;;;;;;;;16.71;47.38;100044.84;4997126;28;1207;-54
2023/03/08 11:06:30;;;;;;;;;;;;;;;18.73;43.82;100046.19;4995924;28;1902;-54
2023/03/08 11:08:58;;;;;;;;;;;;;;;17.30;46.74;100039.19;4996700;28;1090;-55
2023/03/08 11:11:24;;;;;;;;;;;;;;;16.88;47.11;100036.16;4996577;28;1095;-56
2023/03/08 11:13:50;;;;;;;;;;;;;;;16.63;46.79;100033.69;4996636;28;1136;-55
2023/03/08 11:16:35;;;;;;;;;;;;;;;16.52;46.45;100033.81;4996600;28;1081;-56
2023/03/08 11:19:13;;;;;;;;;;;;;;;16.33;46.25;100032.94;4997263;28;1072;-59
2023/03/08 11:21:39;;;;;;;;;;;;;;;16.66;46.48;100033.94;4996439;28;1403;-55
2023/03/08 11:24:18;;;;;;;;;;;;;;;17.07;46.96;100027.97;4996329;28;1199;-59
2023/03/08 11:26:51;;;;;;;;;;;;;;;16.56;47.01;100034.03;5011473;28;1898;-55
2023/03/08 11:29:32;;;;;;;;;;;;;;;16.38;46.68;100027.38;5024901;28;1171;-55
2023/03/08 11:32:28;;;;;;;;;;;;;;;17.37;46.21;100036.88;5011918;28;1239;-61
2023/03/08 11:34:59;;;;;;;;;;;;;;;16.41;47.49;100032.25;4969095;28;1122;-56
2023/03/08 11:37:28;;;;;;;;;;;;;;;16.42;46.58;100034.75;4994540;28;1189;-55
2023/03/08 11:40:05;;;;;;;;;;;;;;;17.55;45.65;100037.19;5002824;28;1098;-57
2023/03/08 11:42:35;;;;;;;;;;;;;;;16.59;47.51;100037.03;5005763;28;1254;-58
2023/03/08 11:45:04;;;;;;;;;;;;;;;16.33;47.07;100041.97;5010652;28;1286;-57
2023/03/08 11:47:37;;;;;;;;;;;;;;;16.18;46.83;100033.88;4997774;28;1980;-55
2023/03/08 11:50:08;;;;;;;;;;;;;;;17.07;46.58;100033.44;4996331;28;1071;-58
2023/03/08 11:52:41;;;;;;;;;;;;;;;16.45;47.21;100032.50;4993679;28;1049;-56
2023/03/08 11:55:15;;;;;;;;;;;;;;;16.39;47.09;100029.00;4996498;28;1144;-58
2023/03/08 11:57:42;;;;;;;;;;;;;;;16.74;47.27;100032.47;5011386;28;1120;-57
2023/03/08 12:00:32;;;;;;;;;;;;;;;17.16;46.55;100024.56;4996351;28;1060;-55
2023/03/08 12:02:58;;;;;;;;;;;;;;;18.24;44.76;100031.97;4993605;28;1224;-56
2023/03/08 12:05:34;;;;;;;;;;;;;;;16.96;47.24;100031.94;5011720;28;1188;-56
2023/03/08 12:08:03;;;;;;;;;;;;;;;16.70;46.89;100025.91;5011117;28;1905;-56
2023/03/08 12:10:34;;;;;;;;;;;;;;;16.47;47.10;100024.81;4996477;28;1077;-56
2023/03/08 12:13:02;;;;;;;;;;;;;;;17.57;46.17;100019.28;4995830;28;1136;-55
2023/03/08 12:15:54;;;;;;;;;;;;;;;16.69;47.51;100019.63;4996166;28;1113;-55
2023/03/08 12:18:38;;;;;;;;;;;;;;;16.42;47.10;100023.78;4998755;28;1810;-55
2023/03/08 12:21:16;;;;;;;;;;;;;;;17.74;45.85;100027.00;4999763;28;1149;-57
2023/03/08 12:24:00;;;;;;;;;;;;;;;16.71;47.36;100020.13;4988458;28;1109;-61
2023/03/08 12:26:26;;;;;;;;;;;;;;;16.51;46.74;100014.88;5007786;28;1965;-57
2023/03/08 12:29:12;;;;;;;;;;;;;;;16.33;46.56;100013.72;5000856;28;1049;-59
2023/03/08 12:31:42;;;;;;;;;;;;;;;17.34;46.63;100009.19;4985283;28;1203;-56
2023/03/08 12:34:23;;;;;;;;;;;;;;;16.70;47.28;100006.69;5014651;28;1120;-57
2023/03/08 12:36:49;;;;;;;;;;;;;;;16.38;47.06;100010.91;5013994;28;933;-56
2023/03/08 12:39:24;;;;;;;;;;;;;;;16.31;46.46;100002.19;4999349;28;1199;-54
2023/03/08 12:42:08;;;;;;;;;;;;;;;17.31;46.49;100010.59;4999606;28;1125;-56
2023/03/08 12:44:34;;;;;;;;;;;;;;;16.62;47.23;99999.13;4986955;28;1152;-56
2023/03/08 12:47:00;;;;;;;;;;;;;;;16.29;47.02;99999.75;4999726;28;1975;-55
2023/03/08 12:49:29;;;;;;;;;;;;;;;16.98;47.00;99998.69;5014404;28;928;-56
2023/03/08 12:51:59;;;;;;;;;;;;;;;16.76;46.99;100006.34;4999271;28;1116;-56